Terminal Aerodrome Forecast
Issued by NWS Sterling, VA

Home | Current Version | Previous Version | Text Only | Print | Product List | Glossary On
Versions: 1 2 3 4 5 6 7 8 9 10 11 12 13 14 15 16 17 18 19 20 21 22
000
FTUS41 KLWX 020541
TAFDCA
TAF
KDCA 020541Z 0206/0306 09004KT 6SM -SHRA OVC003
     FM020900 10004KT 3SM -DZ BR OVC003
     FM021100 16005KT 3SM -DZ BR OVC003
     FM021500 20005KT P6SM BKN003
     FM021900 21009KT P6SM BKN035
     FM022200 23008KT P6SM -SHRA VCTS BKN090CB
     FM030200 30006KT 6SM -SHRA OVC025=

USA.gov is the U.S. government's official web portal to all federal, state and local government web resources and services.